In Rescue
 
Open Full Screen Window  High Contrast Mode
Wind Gusting 00 knots
11
November 29, 2022 7:37 AM CST
Present Weather: Light Snow
Weather Information
Wind Direction
  350 °
Wind Speed
  11 kt (13 mph)
Wind Gust
  00 kt (0 mph)
Altimeter
29.69 in
Visibility
1 1/2 SM
Temperature
-04° C
25° F
Dewpoint
-05° C
23° F
Humidity
93%
1hr Rain Fall
00.00 in.
24hr Rain Fall
00.00 in.
Sky Condition
Overcast @ 300 ft
LIFR

METAR KJYG 291337Z AUTO 35011KT 1 1/2SM -SN OVC003 M04/M05 A2969 RMK AO2 TSNO

FAA Disclaimer: The data displayed is for advisory purposes only and is not to be used for flight planning or operations.